Time;durP1;ratioP1;P1;durP2;ratioP2;P2;SDS_P1;SDS_P2;PMS_P1;PMS_P2;Temp;Humidity;BMP_temperature;BMP_pressure;BME280_temperature;BME280_humidity;BME280_pressure;Samples;Min_cycle;Max_cycle;Signal;HPM_P1;HPM_P2
2023/09/27 00:00:09;;;;;;;4.87;2.90;;;;;;;;;;5055785;28;20438;-73
2023/09/27 00:02:36;;;;;;;3.30;2.80;;;;;;;;;;5056222;28;20444;-73
2023/09/27 00:05:06;;;;;;;2.90;2.30;;;;;;;;;;5056168;28;20202;-74
2023/09/27 00:07:34;;;;;;;3.70;3.07;;;;;;;;;;5055889;28;20498;-74
2023/09/27 00:10:03;;;;;;;3.17;2.70;;;;;;;;;;5055953;28;20476;-74
2023/09/27 00:12:30;;;;;;;7.67;3.90;;;;;;;;;;5056016;28;20433;-74
2023/09/27 00:15:00;;;;;;;3.88;2.40;;;;;;;;;;5055488;28;20487;-74
2023/09/27 00:17:28;;;;;;;4.83;3.40;;;;;;;;;;5055054;28;20191;-73
2023/09/27 00:19:55;;;;;;;5.50;3.17;;;;;;;;;;5055963;28;20561;-73
2023/09/27 00:22:24;;;;;;;4.10;3.10;;;;;;;;;;5055194;28;20440;-74
2023/09/27 00:24:51;;;;;;;3.13;2.33;;;;;;;;;;5055202;28;20469;-73
2023/09/27 00:27:20;;;;;;;3.20;2.45;;;;;;;;;;5055138;28;20218;-73
2023/09/27 00:29:48;;;;;;;4.15;3.13;;;;;;;;;;5055052;28;20186;-74
2023/09/27 00:32:15;;;;;;;3.70;3.13;;;;;;;;;;5055464;28;20191;-74
2023/09/27 00:34:42;;;;;;;4.55;2.55;;;;;;;;;;5055387;28;20186;-74
2023/09/27 00:37:10;;;;;;;4.17;2.57;;;;;;;;;;5054802;28;20186;-73
2023/09/27 00:39:39;;;;;;;3.80;2.70;;;;;;;;;;5055294;28;20445;-74
2023/09/27 00:42:06;;;;;;;4.00;2.42;;;;;;;;;;5055279;28;20293;-73
2023/09/27 00:44:35;;;;;;;6.03;2.65;;;;;;;;;;5055221;28;20195;-74
2023/09/27 00:47:03;;;;;;;3.83;2.42;;;;;;;;;;5055129;28;20600;-73
2023/09/27 00:49:30;;;;;;;11.15;3.00;;;;;;;;;;5054599;28;20708;-74
2023/09/27 00:51:58;;;;;;;6.43;2.60;;;;;;;;;;5054957;28;20191;-74
2023/09/27 00:54:25;;;;;;;3.67;2.50;;;;;;;;;;5054586;28;20199;-74
2023/09/27 00:56:53;;;;;;;4.18;3.53;;;;;;;;;;5054983;28;20207;-74
2023/09/27 00:59:21;;;;;;;4.80;3.10;;;;;;;;;;5065833;28;20193;-74
2023/09/27 01:01:49;;;;;;;4.18;2.60;;;;;;;;;;5074403;28;20190;-74
2023/09/27 01:04:17;;;;;;;3.50;2.55;;;;;;;;;;5074512;28;20722;-73
2023/09/27 01:06:44;;;;;;;4.35;3.15;;;;;;;;;;5074324;28;20190;-74
2023/09/27 01:09:12;;;;;;;3.60;2.55;;;;;;;;;;5063503;28;20301;-74
2023/09/27 01:11:40;;;;;;;2.80;2.13;;;;;;;;;;5055674;28;20179;-73
2023/09/27 01:14:07;;;;;;;3.53;2.78;;;;;;;;;;5054317;28;20191;-74
2023/09/27 01:16:34;;;;;;;5.35;3.83;;;;;;;;;;5054642;28;20195;-74
2023/09/27 01:19:03;;;;;;;8.60;3.92;;;;;;;;;;5053925;28;20246;-74
2023/09/27 01:21:31;;;;;;;4.32;3.15;;;;;;;;;;5054687;28;20202;-74
2023/09/27 01:24:00;;;;;;;5.20;3.17;;;;;;;;;;5054581;28;20191;-73
2023/09/27 01:26:28;;;;;;;3.95;2.55;;;;;;;;;;5054394;28;20198;-74
2023/09/27 01:28:55;;;;;;;6.13;3.75;;;;;;;;;;5053804;28;20622;-74
2023/09/27 01:31:23;;;;;;;6.90;4.07;;;;;;;;;;5054144;28;20209;-74
2023/09/27 01:33:50;;;;;;;4.85;2.90;;;;;;;;;;5054019;28;20194;-73
2023/09/27 01:36:18;;;;;;;4.10;2.67;;;;;;;;;;5053794;28;20649;-74
2023/09/27 01:38:45;;;;;;;3.90;3.03;;;;;;;;;;5053827;28;20687;-74
2023/09/27 01:41:14;;;;;;;3.92;2.85;;;;;;;;;;5054194;28;20249;-74
2023/09/27 01:43:42;;;;;;;4.32;2.80;;;;;;;;;;5054145;28;20226;-74
2023/09/27 01:46:09;;;;;;;3.55;2.28;;;;;;;;;;5054067;28;20282;-74
2023/09/27 01:48:37;;;;;;;3.80;2.72;;;;;;;;;;5053655;28;20637;-74
2023/09/27 01:51:05;;;;;;;5.68;3.30;;;;;;;;;;5053915;28;20221;-74
2023/09/27 01:53:32;;;;;;;6.50;3.10;;;;;;;;;;5053710;28;20248;-74
2023/09/27 01:56:05;;;;;;;6.13;4.00;;;;;;;;;;5053880;28;20283;-73
2023/09/27 01:58:34;;;;;;;6.35;4.20;;;;;;;;;;5056456;28;20229;-74
2023/09/27 02:01:01;;;;;;;8.35;4.05;;;;;;;;;;5062709;28;20271;-74
2023/09/27 02:03:28;;;;;;;5.25;3.25;;;;;;;;;;5052425;28;20704;-74
2023/09/27 02:06:01;;;;;;;5.32;3.22;;;;;;;;;;5053582;28;20179;-74
2023/09/27 02:08:28;;;;;;;5.00;3.17;;;;;;;;;;5053340;28;20237;-74
2023/09/27 02:10:55;;;;;;;4.45;2.13;;;;;;;;;;5064868;28;20190;-74
2023/09/27 02:13:23;;;;;;;3.78;2.35;;;;;;;;;;5073638;28;20189;-74
2023/09/27 02:15:51;;;;;;;3.30;2.40;;;;;;;;;;5073199;28;20235;-74
2023/09/27 02:18:19;;;;;;;4.95;3.10;;;;;;;;;;5073277;28;20238;-74
2023/09/27 02:20:46;;;;;;;4.00;3.08;;;;;;;;;;5071740;28;20191;-74
2023/09/27 02:23:14;;;;;;;5.22;2.90;;;;;;;;;;5062787;28;20214;-74
2023/09/27 02:25:41;;;;;;;3.83;2.72;;;;;;;;;;5053492;28;20195;-74
2023/09/27 02:28:10;;;;;;;4.68;3.47;;;;;;;;;;5053407;28;20256;-74
2023/09/27 02:30:37;;;;;;;3.75;2.40;;;;;;;;;;5059611;28;20727;-74
2023/09/27 02:33:07;;;;;;;3.22;1.40;;;;;;;;;;5066236;28;20653;-74
2023/09/27 02:35:35;;;;;;;6.30;2.50;;;;;;;;;;5053136;28;20203;-74
2023/09/27 02:38:02;;;;;;;6.93;3.72;;;;;;;;;;5053674;28;20220;-74
2023/09/27 02:40:30;;;;;;;11.90;4.18;;;;;;;;;;5052719;28;20672;-74
2023/09/27 02:42:57;;;;;;;6.00;4.38;;;;;;;;;;5032750;28;20199;-74
2023/09/27 02:45:25;;;;;;;7.78;4.40;;;;;;;;;;5033088;28;20199;-74
2023/09/27 02:47:52;;;;;;;4.65;3.55;;;;;;;;;;5032936;28;20191;-74
2023/09/27 02:50:21;;;;;;;5.78;4.47;;;;;;;;;;5032873;28;20242;-74
2023/09/27 02:52:49;;;;;;;4.65;3.47;;;;;;;;;;5070598;28;20327;-74
2023/09/27 02:55:17;;;;;;;7.95;3.75;;;;;;;;;;5073180;28;20190;-74
2023/09/27 02:57:50;;;;;;;4.63;3.47;;;;;;;;;;5072776;28;20244;-74
2023/09/27 03:00:18;;;;;;;4.45;3.58;;;;;;;;;;5073231;28;20182;-74
2023/09/27 03:02:46;;;;;;;5.70;3.90;;;;;;;;;;5065537;28;20236;-74
2023/09/27 03:05:14;;;;;;;3.63;3.00;;;;;;;;;;5073004;28;20220;-74
2023/09/27 03:07:44;;;;;;;4.03;3.08;;;;;;;;;;5072989;28;20202;-74
2023/09/27 03:10:15;;;;;;;4.20;2.78;;;;;;;;;;5073027;28;20202;-74
2023/09/27 03:12:43;;;;;;;3.53;2.85;;;;;;;;;;5055338;28;20187;-74
2023/09/27 03:15:11;;;;;;;3.22;2.35;;;;;;;;;;5052599;28;20275;-74
2023/09/27 03:17:38;;;;;;;4.75;2.95;;;;;;;;;;5052910;28;20201;-74
2023/09/27 03:20:13;;;;;;;2.88;2.00;;;;;;;;;;5052693;28;20540;-74
2023/09/27 03:22:41;;;;;;;3.10;2.10;;;;;;;;;;5053628;28;20182;-74
2023/09/27 03:25:10;;;;;;;3.22;2.35;;;;;;;;;;5052733;28;20201;-74
2023/09/27 03:27:37;;;;;;;3.15;2.33;;;;;;;;;;5052723;28;20187;-74
2023/09/27 03:30:06;;;;;;;4.38;2.13;;;;;;;;;;5052397;28;20195;-74
2023/09/27 03:32:33;;;;;;;3.40;2.17;;;;;;;;;;5067759;28;20185;-74
2023/09/27 03:35:00;;;;;;;3.25;2.20;;;;;;;;;;5072771;28;20190;-74
2023/09/27 03:37:28;;;;;;;3.30;2.47;;;;;;;;;;5057055;28;20194;-74
2023/09/27 03:39:55;;;;;;;6.97;2.40;;;;;;;;;;5052083;28;20226;-74
2023/09/27 03:42:24;;;;;;;10.00;2.58;;;;;;;;;;5052600;28;20197;-74
2023/09/27 03:44:52;;;;;;;3.70;2.45;;;;;;;;;;5053213;28;20722;-74
2023/09/27 03:47:19;;;;;;;5.45;2.30;;;;;;;;;;5065755;28;20191;-74
2023/09/27 03:49:46;;;;;;;2.90;2.17;;;;;;;;;;5072608;28;20198;-74
2023/09/27 03:52:14;;;;;;;4.00;2.70;;;;;;;;;;5072539;28;20648;-74
2023/09/27 03:54:41;;;;;;;4.18;3.03;;;;;;;;;;5072144;28;20195;-74
2023/09/27 03:57:08;;;;;;;4.78;3.38;;;;;;;;;;5062830;28;20187;-74
2023/09/27 03:59:37;;;;;;;6.80;4.80;;;;;;;;;;5055944;28;20218;-74
2023/09/27 04:02:05;;;;;;;8.30;4.65;;;;;;;;;;5056342;28;20194;-74
2023/09/27 04:04:32;;;;;;;4.47;3.47;;;;;;;;;;5056233;28;20198;-74
2023/09/27 04:07:00;;;;;;;4.95;3.40;;;;;;;;;;5056907;28;20186;-74
2023/09/27 04:09:28;;;;;;;3.75;3.00;;;;;;;;;;5056230;28;20198;-74
2023/09/27 04:11:55;;;;;;;3.35;2.60;;;;;;;;;;5056176;28;20631;-74
2023/09/27 04:14:23;;;;;;;3.72;2.58;;;;;;;;;;5055777;28;20190;-74
2023/09/27 04:16:51;;;;;;;5.50;3.55;;;;;;;;;;5064040;28;20196;-74
2023/09/27 04:19:19;;;;;;;5.10;3.22;;;;;;;;;;5075596;28;20233;-74
2023/09/27 04:21:51;;;;;;;4.97;3.55;;;;;;;;;;5075516;28;20777;-74
2023/09/27 04:24:22;;;;;;;5.60;3.85;;;;;;;;;;5074180;28;20178;-76
2023/09/27 04:26:50;;;;;;;6.07;3.70;;;;;;;;;;5075562;28;20583;-76
2023/09/27 04:29:21;;;;;;;4.35;3.10;;;;;;;;;;5075885;28;20255;-76
2023/09/27 04:31:49;;;;;;;4.05;2.67;;;;;;;;;;5075568;28;20189;-77
2023/09/27 04:34:18;;;;;;;3.88;2.65;;;;;;;;;;5067212;28;20233;-76
2023/09/27 04:36:46;;;;;;;3.45;2.33;;;;;;;;;;5055569;28;20193;-76
2023/09/27 04:39:14;;;;;;;3.85;2.50;;;;;;;;;;5055584;28;20216;-76
2023/09/27 04:41:42;;;;;;;3.70;2.72;;;;;;;;;;5055437;28;20332;-76
2023/09/27 04:44:09;;;;;;;4.07;3.40;;;;;;;;;;5072118;28;20540;-76
2023/09/27 04:46:37;;;;;;;8.07;7.38;;;;;;;;;;5075571;28;20189;-76
2023/09/27 04:49:09;;;;;;;7.95;7.13;;;;;;;;;;5075216;28;20202;-76
2023/09/27 04:51:38;;;;;;;5.35;4.85;;;;;;;;;;5075590;28;20178;-76
2023/09/27 04:54:05;;;;;;;7.25;3.08;;;;;;;;;;5064436;28;20653;-76
2023/09/27 04:56:33;;;;;;;4.10;3.00;;;;;;;;;;5055222;28;20198;-76
2023/09/27 04:59:01;;;;;;;4.93;4.28;;;;;;;;;;5054667;28;20219;-76
2023/09/27 05:01:28;;;;;;;6.55;2.65;;;;;;;;;;5055507;28;20190;-76
2023/09/27 05:03:56;;;;;;;5.70;3.30;;;;;;;;;;5062926;28;20196;-76
2023/09/27 05:06:24;;;;;;;5.72;3.75;;;;;;;;;;5074525;28;20203;-76
2023/09/27 05:08:53;;;;;;;30.20;13.55;;;;;;;;;;5071314;28;20200;-76
2023/09/27 05:11:20;;;;;;;24.88;14.48;;;;;;;;;;5073745;28;20186;-76
2023/09/27 05:13:47;;;;;;;45.22;24.60;;;;;;;;;;5073924;28;20216;-76
2023/09/27 05:16:15;;;;;;;24.50;14.80;;;;;;;;;;5073783;28;20258;-76
2023/09/27 05:18:42;;;;;;;8.15;5.30;;;;;;;;;;5073350;28;20229;-76
2023/09/27 05:21:10;;;;;;;8.48;3.85;;;;;;;;;;5071978;28;20234;-76
2023/09/27 05:23:37;;;;;;;3.92;2.90;;;;;;;;;;5073146;28;20205;-76
2023/09/27 05:26:06;;;;;;;3.50;2.30;;;;;;;;;;5073741;28;20222;-76
2023/09/27 05:28:33;;;;;;;8.35;5.93;;;;;;;;;;5060589;28;20244;-76
2023/09/27 05:31:01;;;;;;;4.18;2.88;;;;;;;;;;5069408;28;20263;-76
2023/09/27 05:33:28;;;;;;;5.03;3.92;;;;;;;;;;5073668;28;20193;-76
2023/09/27 05:35:55;;;;;;;4.28;3.15;;;;;;;;;;5072865;28;20255;-76
2023/09/27 05:38:22;;;;;;;5.15;3.10;;;;;;;;;;5073073;28;20711;-76
2023/09/27 05:40:50;;;;;;;29.70;15.90;;;;;;;;;;5071319;28;20220;-76
2023/09/27 05:43:18;;;;;;;54.78;29.95;;;;;;;;;;5072917;28;20200;-76
2023/09/27 05:45:49;;;;;;;40.75;23.83;;;;;;;;;;5072858;28;20202;-76
2023/09/27 05:48:16;;;;;;;26.80;18.27;;;;;;;;;;5073238;28;20222;-76
2023/09/27 05:50:44;;;;;;;10.93;7.45;;;;;;;;;;5059716;28;20194;-76
2023/09/27 05:53:12;;;;;;;12.13;10.23;;;;;;;;;;5052637;28;20195;-76
2023/09/27 05:55:41;;;;;;;17.63;11.50;;;;;;;;;;5056417;28;20253;-76
2023/09/27 05:58:08;;;;;;;11.27;6.75;;;;;;;;;;5052880;28;20210;-76
2023/09/27 06:00:47;;;;;;;26.65;17.85;;;;;;;;;;5052370;28;20260;-76
2023/09/27 06:03:16;;;;;;;36.35;24.67;;;;;;;;;;5052990;28;20190;-76
2023/09/27 06:05:44;;;;;;;18.38;12.63;;;;;;;;;;5049460;28;20595;-76
2023/09/27 06:08:11;;;;;;;8.50;6.40;;;;;;;;;;5052185;28;20249;-76
2023/09/27 06:10:40;;;;;;;7.55;5.00;;;;;;;;;;5052794;28;20527;-76
2023/09/27 06:13:08;;;;;;;7.03;5.82;;;;;;;;;;5052606;28;20570;-76
2023/09/27 06:15:36;;;;;;;62.95;30.85;;;;;;;;;;5052485;28;20195;-76
2023/09/27 06:18:04;;;;;;;20.65;11.65;;;;;;;;;;5051893;28;20226;-76
2023/09/27 06:20:32;;;;;;;15.82;9.50;;;;;;;;;;5051649;28;20214;-76
2023/09/27 06:23:03;;;;;;;8.02;6.15;;;;;;;;;;5051883;28;20221;-75
2023/09/27 06:25:30;;;;;;;4.78;3.30;;;;;;;;;;5051601;28;20183;-76
2023/09/27 06:28:00;;;;;;;8.52;3.60;;;;;;;;;;5051935;28;20239;-76
2023/09/27 06:30:28;;;;;;;6.13;4.80;;;;;;;;;;5052116;28;20193;-76
2023/09/27 06:32:57;;;;;;;4.70;3.85;;;;;;;;;;5051749;28;20641;-76
2023/09/27 06:35:24;;;;;;;6.43;3.67;;;;;;;;;;5051768;28;20522;-76
2023/09/27 06:37:52;;;;;;;5.40;4.37;;;;;;;;;;5051416;28;20194;-76
2023/09/27 06:40:22;;;;;;;7.40;5.00;;;;;;;;;;5051358;28;20481;-76
2023/09/27 06:42:49;;;;;;;7.40;3.90;;;;;;;;;;5052219;28;20437;-76
2023/09/27 06:45:16;;;;;;;10.20;7.30;;;;;;;;;;5052409;28;20473;-76
2023/09/27 06:47:45;;;;;;;8.50;6.60;;;;;;;;;;5051437;28;20430;-76
2023/09/27 06:50:14;;;;;;;13.40;8.93;;;;;;;;;;5051479;28;20821;-77
2023/09/27 06:52:41;;;;;;;7.13;4.50;;;;;;;;;;5064827;28;21230;-73
2023/09/27 06:55:11;;;;;;;6.50;3.90;;;;;;;;;;5055609;28;20476;-74
2023/09/27 06:57:39;;;;;;;6.80;4.63;;;;;;;;;;5052633;28;20440;-73
2023/09/27 07:00:13;;;;;;;5.50;3.60;;;;;;;;;;5052777;28;20539;-74
2023/09/27 07:02:42;;;;;;;5.90;3.17;;;;;;;;;;5052523;28;20421;-74
2023/09/27 07:05:11;;;;;;;4.80;3.87;;;;;;;;;;5052683;28;20437;-74
2023/09/27 07:07:40;;;;;;;5.83;3.70;;;;;;;;;;5052729;28;20433;-74
2023/09/27 07:10:08;;;;;;;3.67;2.57;;;;;;;;;;5052731;28;20544;-74
2023/09/27 07:12:36;;;;;;;4.30;1.93;;;;;;;;;;5052357;28;20481;-75
2023/09/27 07:15:04;;;;;;;3.03;1.90;;;;;;;;;;5052836;28;20508;-74
2023/09/27 07:17:32;;;;;;;4.60;2.50;;;;;;;;;;5052324;28;20916;-74
2023/09/27 07:19:59;;;;;;;5.10;3.43;;;;;;;;;;5052620;28;20567;-75
2023/09/27 07:22:27;;;;;;;4.03;3.20;;;;;;;;;;5052322;28;20542;-75
2023/09/27 07:24:57;;;;;;;4.80;2.63;;;;;;;;;;5052362;28;20442;-74
2023/09/27 07:27:29;;;;;;;4.57;2.63;;;;;;;;;;5052586;28;20452;-74
2023/09/27 07:29:56;;;;;;;5.00;2.90;;;;;;;;;;5053752;28;20425;-74
2023/09/27 07:32:23;;;;;;;3.20;1.93;;;;;;;;;;5056243;28;20455;-75
2023/09/27 07:34:53;;;;;;;4.27;2.30;;;;;;;;;;5055941;28;20525;-75
2023/09/27 07:37:20;;;;;;;3.30;1.73;;;;;;;;;;5056193;28;20523;-75
2023/09/27 07:39:47;;;;;;;3.10;2.30;;;;;;;;;;5056236;28;20465;-75
2023/09/27 07:42:16;;;;;;;3.00;2.10;;;;;;;;;;5056004;28;20437;-74
2023/09/27 07:44:46;;;;;;;3.53;2.27;;;;;;;;;;5055856;28;20422;-74
2023/09/27 07:47:13;;;;;;;4.20;2.20;;;;;;;;;;5056277;28;20524;-75
2023/09/27 07:49:40;;;;;;;3.60;2.07;;;;;;;;;;5055935;28;20468;-75
2023/09/27 07:52:08;;;;;;;3.53;2.20;;;;;;;;;;5055667;28;20904;-74
2023/09/27 07:54:36;;;;;;;3.30;2.20;;;;;;;;;;5055707;28;20437;-75
2023/09/27 07:57:05;;;;;;;5.10;1.90;;;;;;;;;;5055984;28;20486;-75
2023/09/27 07:59:35;;;;;;;2.60;1.60;;;;;;;;;;5055526;28;20477;-75
2023/09/27 08:02:02;;;;;;;3.50;1.63;;;;;;;;;;5055811;28;20444;-75
2023/09/27 08:04:30;;;;;;;3.00;1.60;;;;;;;;;;5055663;28;20499;-75
2023/09/27 08:07:03;;;;;;;3.37;2.03;;;;;;;;;;5055293;28;20510;-75
2023/09/27 08:09:30;;;;;;;3.80;1.93;;;;;;;;;;5055656;28;20433;-75
2023/09/27 08:11:58;;;;;;;5.43;2.10;;;;;;;;;;5055593;28;20444;-75
2023/09/27 08:14:26;;;;;;;4.13;2.00;;;;;;;;;;5055635;28;20441;-75
2023/09/27 08:16:54;;;;;;;3.87;1.87;;;;;;;;;;5055569;28;20460;-75
2023/09/27 08:19:22;;;;;;;4.07;2.00;;;;;;;;;;5054989;28;20534;-75
2023/09/27 08:21:49;;;;;;;3.73;2.47;;;;;;;;;;5055399;28;20829;-75
2023/09/27 08:24:17;;;;;;;3.30;2.13;;;;;;;;;;5055396;28;20429;-75
2023/09/27 08:26:44;;;;;;;3.87;2.17;;;;;;;;;;5055120;28;20461;-75
2023/09/27 08:29:13;;;;;;;3.40;2.00;;;;;;;;;;5054995;28;20440;-75
2023/09/27 08:31:40;;;;;;;3.20;1.90;;;;;;;;;;5054820;28;20461;-75
2023/09/27 08:34:09;;;;;;;3.90;2.30;;;;;;;;;;5055217;28;20884;-75
2023/09/27 08:36:37;;;;;;;5.43;2.10;;;;;;;;;;5055064;28;20490;-75
2023/09/27 08:39:04;;;;;;;3.67;2.13;;;;;;;;;;5055103;28;20434;-75
2023/09/27 08:41:31;;;;;;;4.43;2.20;;;;;;;;;;5054441;28;20449;-75
2023/09/27 08:43:59;;;;;;;6.33;2.03;;;;;;;;;;5054733;28;20506;-75
2023/09/27 08:46:26;;;;;;;3.00;2.13;;;;;;;;;;5054739;28;20441;-75
2023/09/27 08:48:56;;;;;;;3.20;1.63;;;;;;;;;;5055074;28;20433;-75
2023/09/27 08:51:25;;;;;;;2.60;1.70;;;;;;;;;;5054484;28;20955;-75
2023/09/27 08:53:52;;;;;;;2.53;1.70;;;;;;;;;;5054593;28;20967;-75
2023/09/27 08:56:20;;;;;;;5.87;2.47;;;;;;;;;;5054697;28;20834;-75
2023/09/27 08:58:50;;;;;;;4.00;2.30;;;;;;;;;;5054465;28;20445;-75
2023/09/27 09:01:18;;;;;;;4.63;2.23;;;;;;;;;;5054422;28;20441;-75
2023/09/27 09:03:46;;;;;;;2.67;1.93;;;;;;;;;;5054693;28;20491;-75
2023/09/27 09:06:13;;;;;;;5.23;2.00;;;;;;;;;;5054642;28;20429;-75
2023/09/27 09:08:43;;;;;;;3.63;2.30;;;;;;;;;;5054272;28;20492;-75
2023/09/27 09:11:11;;;;;;;3.57;2.33;;;;;;;;;;5054470;28;20469;-75
2023/09/27 09:13:53;;;;;;;3.27;2.43;;;;;;;;;;5054368;28;20477;-75
2023/09/27 09:16:23;;;;;;;6.53;2.43;;;;;;;;;;5054060;28;20413;-75
2023/09/27 09:18:52;;;;;;;3.57;2.80;;;;;;;;;;5053935;28;20944;-75
2023/09/27 09:21:20;;;;;;;3.50;2.73;;;;;;;;;;5054170;28;20754;-75
2023/09/27 09:23:49;;;;;;;3.50;2.43;;;;;;;;;;5054285;28;20461;-75
2023/09/27 09:26:29;;;;;;;3.67;2.63;;;;;;;;;;5054463;28;20789;-75
2023/09/27 09:28:59;;;;;;;3.20;2.40;;;;;;;;;;5053941;28;20417;-75
2023/09/27 09:31:27;;;;;;;6.30;2.93;;;;;;;;;;5054133;28;20443;-75
2023/09/27 09:34:04;;;;;;;3.80;2.93;;;;;;;;;;5053772;28;20916;-75
2023/09/27 09:36:32;;;;;;;4.70;2.83;;;;;;;;;;5053927;28;20444;-75
2023/09/27 09:39:13;;;;;;;4.00;2.97;;;;;;;;;;5054061;28;20448;-75
2023/09/27 09:41:47;;;;;;;4.37;2.60;;;;;;;;;;5053946;28;20864;-75
2023/09/27 09:44:20;;;;;;;4.63;3.30;;;;;;;;;;5053945;28;20795;-75
2023/09/27 09:46:48;;;;;;;5.47;2.97;;;;;;;;;;5051944;28;20800;-75
2023/09/27 09:49:16;;;;;;;6.13;3.00;;;;;;;;;;5053788;28;20460;-76
2023/09/27 09:51:47;;;;;;;3.70;2.90;;;;;;;;;;5053093;28;20876;-75
2023/09/27 09:54:20;;;;;;;3.70;2.73;;;;;;;;;;5053037;28;20421;-76
2023/09/27 09:56:50;;;;;;;7.33;2.93;;;;;;;;;;5053429;28;20468;-76
2023/09/27 09:59:21;;;;;;;3.50;2.80;;;;;;;;;;5053258;28;20459;-76
2023/09/27 10:01:48;;;;;;;3.70;2.70;;;;;;;;;;5053270;28;20518;-75
2023/09/27 10:04:16;;;;;;;2.80;2.37;;;;;;;;;;5053520;28;20886;-76
2023/09/27 10:06:45;;;;;;;4.20;2.27;;;;;;;;;;5053411;28;20798;-76
2023/09/27 10:09:13;;;;;;;3.13;2.60;;;;;;;;;;5051969;28;20429;-76
2023/09/27 10:11:42;;;;;;;3.00;2.50;;;;;;;;;;5053090;28;20441;-76
2023/09/27 10:14:11;;;;;;;2.90;2.30;;;;;;;;;;5053460;28;20440;-76
2023/09/27 10:16:38;;;;;;;3.63;2.90;;;;;;;;;;5052985;28;20931;-76
2023/09/27 10:19:08;;;;;;;3.20;2.63;;;;;;;;;;5052713;28;20468;-76
2023/09/27 10:21:56;;;;;;;3.33;2.70;;;;;;;;;;5053148;28;20480;-76
2023/09/27 10:24:28;;;;;;;3.57;2.97;;;;;;;;;;5052836;28;20441;-76
2023/09/27 10:26:56;;;;;;;3.03;2.33;;;;;;;;;;5053214;28;20432;-76
2023/09/27 10:29:29;;;;;;;3.70;3.30;;;;;;;;;;5052795;28;20915;-76
2023/09/27 10:32:23;;;;;;;4.43;2.80;;;;;;;;;;5053159;28;20421;-76
2023/09/27 10:34:52;;;;;;;3.70;2.90;;;;;;;;;;5052867;28;20462;-76
2023/09/27 10:37:38;;;;;;;4.10;2.73;;;;;;;;;;5052760;28;20934;-76
2023/09/27 10:40:21;;;;;;;6.20;2.97;;;;;;;;;;5053150;28;20439;-76
2023/09/27 10:42:50;;;;;;;3.33;1.80;;;;;;;;;;5053043;28;20796;-76
2023/09/27 10:45:17;;;;;;;7.47;2.10;;;;;;;;;;5052694;28;20946;-76
2023/09/27 10:47:46;;;;;;;2.97;1.90;;;;;;;;;;5052568;28;20490;-74
2023/09/27 10:50:13;;;;;;;5.03;1.90;;;;;;;;;;5052590;28;20445;-74
2023/09/27 10:52:41;;;;;;;3.10;2.20;;;;;;;;;;5052849;28;20428;-74
2023/09/27 10:55:14;;;;;;;3.73;1.80;;;;;;;;;;5052823;28;20493;-74
2023/09/27 10:57:42;;;;;;;3.30;2.27;;;;;;;;;;5052880;28;20436;-74
2023/09/27 11:00:13;;;;;;;2.90;2.00;;;;;;;;;;5052574;28;20528;-74
2023/09/27 11:02:41;;;;;;;3.23;2.30;;;;;;;;;;5052514;28;20507;-74
2023/09/27 11:05:09;;;;;;;2.53;1.70;;;;;;;;;;5054043;28;20942;-74
2023/09/27 11:07:46;;;;;;;2.83;2.07;;;;;;;;;;5056577;28;20502;-74
2023/09/27 11:10:19;;;;;;;2.30;1.70;;;;;;;;;;5056920;28;20443;-74
2023/09/27 11:12:46;;;;;;;3.90;1.87;;;;;;;;;;5056809;28;20470;-74
2023/09/27 11:15:23;;;;;;;8.33;2.00;;;;;;;;;;5072481;28;20437;-74
2023/09/27 11:17:56;;;;;;;4.27;1.70;;;;;;;;;;5075731;28;20428;-74
2023/09/27 11:20:25;;;;;;;3.00;2.20;;;;;;;;;;5066024;28;20452;-74
2023/09/27 11:23:02;;;;;;;2.90;2.00;;;;;;;;;;5055512;28;20432;-74
2023/09/27 11:25:30;;;;;;;2.60;1.70;;;;;;;;;;5056351;28;20420;-74
2023/09/27 11:27:57;;;;;;;3.13;1.57;;;;;;;;;;5056350;28;20447;-74
2023/09/27 11:30:31;;;;;;;3.60;2.00;;;;;;;;;;5055528;28;20437;-74
2023/09/27 11:32:59;;;;;;;3.40;1.77;;;;;;;;;;5056322;28;20522;-74
2023/09/27 11:35:27;;;;;;;3.13;1.63;;;;;;;;;;5055871;28;20428;-74
2023/09/27 11:38:10;;;;;;;3.67;1.83;;;;;;;;;;5055994;28;20516;-74
2023/09/27 11:40:38;;;;;;;3.07;1.97;;;;;;;;;;5056380;28;20498;-74
2023/09/27 11:43:12;;;;;;;2.67;1.97;;;;;;;;;;5055134;28;20479;-74
2023/09/27 11:45:47;;;;;;;4.27;2.07;;;;;;;;;;5055799;28;20451;-74
2023/09/27 11:48:15;;;;;;;3.17;1.90;;;;;;;;;;5065928;28;20443;-74
2023/09/27 11:50:43;;;;;;;3.07;1.80;;;;;;;;;;5055788;28;20429;-74
2023/09/27 11:53:10;;;;;;;4.10;2.00;;;;;;;;;;5059396;28;20428;-74
2023/09/27 11:55:38;;;;;;;2.70;1.90;;;;;;;;;;5072120;28;20444;-74
2023/09/27 11:58:05;;;;;;;5.70;2.30;;;;;;;;;;5075440;28;20913;-74
2023/09/27 12:00:32;;;;;;;3.90;1.90;;;;;;;;;;5075511;28;20485;-74
2023/09/27 12:03:01;;;;;;;2.83;1.90;;;;;;;;;;5075403;28;20995;-74
2023/09/27 12:05:28;;;;;;;3.20;1.90;;;;;;;;;;5075677;28;20432;-74
2023/09/27 12:07:56;;;;;;;4.80;2.53;;;;;;;;;;5075788;28;20432;-74
2023/09/27 12:10:23;;;;;;;4.40;2.43;;;;;;;;;;5075647;28;20493;-74
2023/09/27 12:12:51;;;;;;;3.47;1.90;;;;;;;;;;5075650;28;20793;-74
2023/09/27 12:15:19;;;;;;;4.60;2.33;;;;;;;;;;5075348;28;20562;-74
2023/09/27 12:17:46;;;;;;;3.20;1.67;;;;;;;;;;5074287;28;20847;-73
2023/09/27 12:20:15;;;;;;;2.90;2.10;;;;;;;;;;5064332;28;20493;-74
2023/09/27 12:22:43;;;;;;;3.37;1.70;;;;;;;;;;5054620;28;20489;-74
2023/09/27 12:25:11;;;;;;;2.80;1.80;;;;;;;;;;5054989;28;20923;-74
2023/09/27 12:27:39;;;;;;;3.20;1.67;;;;;;;;;;5053905;28;20436;-74
2023/09/27 12:30:07;;;;;;;5.47;2.47;;;;;;;;;;5054754;28;20852;-74
2023/09/27 12:32:34;;;;;;;3.90;2.07;;;;;;;;;;5055181;28;20491;-74
2023/09/27 12:35:01;;;;;;;3.13;2.13;;;;;;;;;;5054826;28;20434;-74
2023/09/27 12:37:30;;;;;;;3.10;1.63;;;;;;;;;;5054679;28;20826;-74
2023/09/27 12:39:58;;;;;;;2.90;1.80;;;;;;;;;;5054264;28;20933;-74
2023/09/27 12:42:26;;;;;;;2.80;1.80;;;;;;;;;;5054747;28;20469;-74
2023/09/27 12:44:53;;;;;;;3.40;1.80;;;;;;;;;;5054728;28;20532;-74
2023/09/27 12:47:20;;;;;;;2.70;1.87;;;;;;;;;;5055012;28;20848;-74
2023/09/27 12:49:48;;;;;;;3.57;1.83;;;;;;;;;;5055058;28;20495;-74
2023/09/27 12:52:16;;;;;;;3.57;2.10;;;;;;;;;;5054500;28;20433;-74
2023/09/27 12:54:47;;;;;;;4.13;2.33;;;;;;;;;;5054902;28;20445;-74
2023/09/27 12:57:14;;;;;;;5.07;1.90;;;;;;;;;;5054495;28;20460;-73
2023/09/27 12:59:42;;;;;;;2.80;2.00;;;;;;;;;;5054424;28;20935;-74
2023/09/27 13:02:09;;;;;;;2.87;1.80;;;;;;;;;;5054382;28;20469;-73
2023/09/27 13:04:36;;;;;;;4.17;2.27;;;;;;;;;;5054028;28;20511;-73
2023/09/27 13:07:04;;;;;;;3.03;2.00;;;;;;;;;;5054006;28;20429;-73
2023/09/27 13:09:31;;;;;;;3.33;2.00;;;;;;;;;;5054645;28;20789;-75
2023/09/27 13:12:00;;;;;;;3.43;2.13;;;;;;;;;;5054545;28;20437;-75
2023/09/27 13:14:27;;;;;;;6.63;2.27;;;48.20;8.20;;;;;;5054371;28;20437;-75
2023/09/27 13:16:54;;;;;;;5.10;2.10;;;44.80;15.10;;;;;;5054062;28;20856;-75
2023/09/27 13:19:21;;;;;;;4.90;1.97;;;42.50;16.50;;;;;;5053952;28;20461;-75
2023/09/27 13:21:48;;;;;;;5.40;3.90;;;40.60;18.30;;;;;;5053963;28;20477;-75
2023/09/27 13:24:20;;;;;;;3.67;2.27;;;39.10;19.20;;;;;;5054072;28;20429;-75
2023/09/27 13:26:47;;;;;;;3.97;2.20;;;37.80;21.00;;;;;;5054440;28;20755;-75
2023/09/27 13:29:15;;;;;;;5.37;2.03;;;36.70;22.50;;;;;;5053890;28;20434;-75
2023/09/27 13:31:47;;;;;;;3.60;1.97;;;35.90;24.10;;;;;;5054187;28;20444;-75
2023/09/27 13:34:14;;;;;;;2.93;1.93;;;35.10;23.90;;;;;;5054147;28;20428;-75
2023/09/27 13:36:41;;;;;;;4.43;2.30;;;34.40;24.80;;;;;;5054070;28;20513;-75
2023/09/27 13:39:16;;;;;;;4.47;2.10;;;33.80;24.90;;;;;;5053747;28;20433;-75
2023/09/27 13:41:45;;;;;;;3.20;1.93;;;33.30;25.70;;;;;;5053774;28;20976;-75
2023/09/27 13:44:14;;;;;;;9.13;2.10;;;32.90;26.20;;;;;;5053651;28;20471;-75
2023/09/27 13:46:42;;;;;;;5.73;2.20;;;32.40;27.10;;;;;;5051532;28;20436;-75
2023/09/27 13:49:09;;;;;;;4.37;2.13;;;32.10;27.80;;;;;;5053843;28;20446;-75
2023/09/27 13:51:36;;;;;;;3.33;1.97;;;31.80;29.00;;;;;;5053739;28;20799;-75
2023/09/27 13:54:04;;;;;;;4.80;1.80;;;31.60;29.80;;;;;;5053735;28;20842;-75
2023/09/27 13:56:31;;;;;;;3.37;1.90;;;31.30;29.20;;;;;;5053954;28;20504;-75
2023/09/27 13:58:59;;;;;;;8.13;2.10;;;31.10;28.60;;;;;;5053584;28;20487;-75
2023/09/27 14:01:27;;;;;;;3.90;2.00;;;30.90;29.40;;;;;;5053598;28;20441;-75
2023/09/27 14:03:55;;;;;;;3.73;2.10;;;30.60;29.50;;;;;;5053020;28;20434;-75
2023/09/27 14:06:22;;;;;;;4.40;2.63;;;30.40;29.80;;;;;;5053487;28;20438;-75
2023/09/27 14:08:49;;;;;;;3.60;2.10;;;30.30;30.80;;;;;;5053129;28;20487;-75
2023/09/27 14:11:17;;;;;;;4.90;2.80;;;30.00;30.90;;;;;;5053087;28;20507;-75
2023/09/27 14:13:46;;;;;;;3.90;2.10;;;29.80;31.30;;;;;;5053269;28;20520;-74
2023/09/27 14:16:16;;;;;;;3.50;2.10;;;;;;;;;;5053570;28;20441;-74
2023/09/27 14:18:45;;;;;;;7.07;3.77;;;;;;;;;;5053117;28;20473;-75
2023/09/27 14:21:13;;;;;;;3.40;2.10;;;;;;;;;;5053093;28;20433;-75
2023/09/27 14:23:42;;;;;;;4.40;2.43;;;;;;;;;;5050646;28;20484;-75
2023/09/27 14:26:09;;;;;;;4.00;2.37;;;;;;;;;;5053031;28;20934;-75
2023/09/27 14:28:36;;;;;;;4.83;2.10;;;;;;;;;;5053140;28;20781;-75
2023/09/27 14:31:03;;;;;;;3.40;2.10;;;;;;;;;;5053205;28;20500;-74
2023/09/27 14:33:31;;;;;;;3.50;2.33;;;;;;;;;;5052845;28;20491;-75
2023/09/27 14:35:59;;;;;;;4.50;2.77;;;;;;;;;;5052669;28;20491;-75
2023/09/27 14:38:29;;;;;;;4.70;2.77;;;;;;;;;;5052723;28;20903;-75
2023/09/27 14:40:56;;;;;;;3.50;2.27;;;;;;;;;;5052075;28;20449;-75